Time;durP1;ratioP1;P1;durP2;ratioP2;P2;SDS_P1;SDS_P2;PMS_P1;PMS_P2;Temp;Humidity;BMP_temperature;BMP_pressure;BME280_temperature;BME280_humidity;BME280_pressure;Samples;Min_cycle;Max_cycle;Signal;HPM_P1;HPM_P2
2021/05/24 00:01:45;;;;;;;14.07;7.85;;;;;;;8.52;86.94;99501.35;4416678;79;21080;-83
2021/05/24 00:07:47;;;;;;;14.30;8.43;;;;;;;8.01;86.81;99517.98;4412075;79;21546;-83
2021/05/24 00:13:55;;;;;;;12.25;7.10;;;;;;;7.83;87.18;99522.91;4397879;79;21101;-84
2021/05/24 00:20:01;;;;;;;12.53;7.47;;;;;;;7.68;86.66;99529.08;4410904;79;21073;-84
2021/05/24 00:26:02;;;;;;;13.00;7.83;;;;;;;7.76;87.54;99536.33;4419438;79;21057;-84
2021/05/24 00:32:07;;;;;;;13.20;7.42;;;;;;;7.78;86.84;99543.58;4386347;80;21021;-83
2021/05/24 00:44:42;;;;;;;9.90;6.60;;;;;;;7.51;86.20;99549.75;4415645;79;21034;-83
2021/05/24 00:51:43;;;;;;;13.50;8.50;;;;;;;7.46;86.52;99557.34;4398071;79;21084;-84
2021/05/24 00:58:07;;;;;;;10.58;6.03;;;;;;;7.29;86.21;99562.45;4406600;79;21089;-83
2021/05/24 01:04:11;;;;;;;11.22;7.20;;;;;;;7.28;86.93;99573.69;4391117;78;21616;-84
2021/05/24 01:10:32;;;;;;;10.90;7.35;;;;;;;7.02;85.46;99561.73;4401809;79;21033;-82
2021/05/24 01:16:36;;;;;;;10.55;6.60;;;;;;;6.77;85.81;99562.80;4354470;79;21164;-83
2021/05/24 01:22:56;;;;;;;14.68;8.28;;;;;;;6.67;86.19;99576.81;4420604;79;21051;-83
2021/05/24 01:28:51;;;;;;;12.35;5.05;;;;;;;6.68;86.50;99582.51;4384682;80;21076;-83
2021/05/24 01:35:02;;;;;;;8.75;5.95;;;;;;;6.60;85.68;99574.41;4419716;79;21072;-84
2021/05/24 01:41:12;;;;;;;12.75;6.10;;;;;;;6.23;85.66;99585.12;4412670;80;21123;-84
2021/05/24 01:47:22;;;;;;;11.50;6.58;;;;;;;6.14;86.15;99589.03;4400338;80;21663;-83
2021/05/24 01:53:27;;;;;;;9.20;5.90;;;;;;;6.04;86.09;99573.14;4426220;79;21049;-83
2021/05/24 01:59:31;;;;;;;10.45;6.42;;;;;;;5.88;86.15;99583.80;4416083;79;21605;-83
2021/05/24 02:05:35;;;;;;;10.53;5.90;;;;;;;5.86;86.42;99574.37;4406925;80;21122;-82
2021/05/24 02:11:52;;;;;;;9.98;5.83;;;;;;;5.82;86.39;99582.95;4421209;79;21037;-83
2021/05/24 02:17:58;;;;;;;8.20;4.75;;;;;;;5.83;86.94;99589.42;4411022;80;21112;-83
2021/05/24 02:24:12;;;;;;;8.93;6.00;;;;;;;5.84;86.78;99597.02;4390670;79;21010;-83
2021/05/24 02:30:23;;;;;;;12.78;8.00;;;;;;;5.92;86.48;99593.45;4415233;79;21659;-83
2021/05/24 02:36:59;;;;;;;8.30;5.83;;;;;;;5.74;86.15;99588.65;4352153;80;21078;-83
2021/05/24 02:43:08;;;;;;;10.38;6.53;;;;;;;5.69;86.63;99595.63;4412270;79;21053;-84
2021/05/24 02:49:12;;;;;;;11.78;5.55;;;;;;;5.57;86.92;99594.18;4419100;79;21095;-83
2021/05/24 02:55:49;;;;;;;11.45;5.20;;;;;;;5.44;86.13;99583.52;4410892;79;21112;-83
2021/05/24 03:01:54;;;;;;;7.30;4.87;;;;;;;5.48;87.25;99603.48;4386371;79;21625;-83
2021/05/24 03:08:02;;;;;;;9.90;6.08;;;;;;;5.68;87.04;99603.55;4398876;79;21061;-83
2021/05/24 03:14:31;;;;;;;11.47;6.60;;;;;;;5.72;87.03;99622.68;4375373;79;21133;-83
2021/05/24 03:20:49;;;;;;;8.98;5.40;;;;;;;5.86;87.42;99626.80;4397278;79;21041;-83
2021/05/24 03:26:55;;;;;;;10.38;5.53;;;;;;;5.87;86.60;99626.25;4176710;79;32270;-84
2021/05/24 03:32:57;;;;;;;8.37;4.37;;;;;;;5.96;87.67;99632.42;4136674;84;21053;-84
2021/05/24 03:39:17;;;;;;;12.23;6.35;;;;;;;6.18;87.66;99633.48;4134816;84;21635;-84
2021/05/24 03:45:35;;;;;;;9.80;5.95;;;;;;;6.28;87.42;99635.78;4114960;84;21096;-82
2021/05/24 03:52:38;;;;;;;10.60;6.58;;;;;;;6.30;86.87;99635.70;4186140;84;21115;-84
2021/05/24 04:20:13;;;;;;;8.78;5.83;;;;;;;6.70;87.35;99633.86;4133135;86;21428;-83
2021/05/24 04:26:42;;;;;;;14.73;10.03;;;;;;;6.79;87.59;99629.13;4129261;85;21171;-84
2021/05/24 04:33:09;;;;;;;17.52;11.28;;;;;;;6.77;87.43;99630.02;4131827;85;21161;-84
2021/05/24 04:39:13;;;;;;;12.37;6.90;;;;;;;6.81;87.88;99619.52;4131961;84;21105;-84
2021/05/24 04:53:05;;;;;;;11.43;8.23;;;;;;;7.35;88.76;99627.82;4132657;86;21139;-84
2021/05/24 05:06:13;;;;;;;16.32;8.20;;;;;;;8.06;88.27;99654.08;4132734;85;21120;-84
2021/05/24 05:12:15;;;;;;;11.22;7.08;;;;;;;8.38;88.16;99668.15;4147102;84;21101;-84
2021/05/24 05:18:31;;;;;;;12.43;6.60;;;;;;;8.63;88.32;99664.81;4172750;84;21084;-84
2021/05/24 05:53:33;;;;;;;9.43;5.97;;;;;;;10.45;88.85;99686.55;4141565;86;21104;-84
2021/05/24 06:41:00;;;;;;;1.90;1.17;;;;;;;12.72;85.61;99665.00;4109180;85;21140;-83
2021/05/24 06:47:03;;;;;;;2.50;1.12;;;;;;;13.22;84.73;99664.44;4120650;85;21135;-82
2021/05/24 06:53:12;;;;;;;2.17;1.10;;;;;;;13.54;81.96;99674.63;4123055;85;21122;-82
2021/05/24 06:59:26;;;;;;;2.30;1.15;;;;;;;13.66;80.59;99672.97;4112478;85;21629;-82
2021/05/24 07:05:56;;;;;;;2.33;1.20;;;;;;;13.83;77.66;99676.46;4119425;85;21117;-83
2021/05/24 07:12:07;;;;;;;2.40;1.10;;;;;;;14.06;75.54;99650.89;4094463;85;21120;-84
2021/05/24 07:25:38;;;;;;;2.83;0.80;;;;;;;14.63;76.87;99647.94;4130258;85;21056;-83
2021/05/24 07:32:10;;;;;;;2.15;0.90;;;;;;;14.92;74.36;99656.56;4127195;85;21082;-84
2021/05/24 07:38:15;;;;;;;1.20;0.80;;;;;;;15.16;73.79;99668.86;4104703;85;21116;-84
2021/05/24 07:51:03;;;;;;;4.05;1.00;;;;;;;15.88;71.51;99645.94;4115531;85;21033;-84
2021/05/24 07:57:06;;;;;;;1.75;0.93;;;;;;;16.04;71.13;99643.58;4113554;85;21431;-83
2021/05/24 08:03:29;;;;;;;1.42;1.05;;;;;;;16.02;63.66;99638.26;4082431;85;21080;-81
2021/05/24 08:09:30;;;;;;;2.87;0.90;;;;;;;15.99;60.90;99641.20;4131812;84;21113;-83
2021/05/24 08:16:16;;;;;;;4.42;1.30;;;;;;;16.00;62.56;99619.33;4105480;84;21101;-84
2021/05/24 08:22:37;;;;;;;2.75;1.07;;;;;;;16.27;64.70;99619.07;4111179;85;21102;-83
2021/05/24 08:29:03;;;;;;;2.98;0.80;;;;;;;16.50;65.46;99628.34;4100741;85;21360;-83
2021/05/24 08:35:37;;;;;;;2.62;1.10;;;;;;;16.44;64.52;99625.77;4131084;85;21024;-83
2021/05/24 08:41:40;;;;;;;1.62;0.93;;;;;;;16.61;63.96;99624.37;4052038;85;21096;-85
2021/05/24 08:48:02;;;;;;;2.42;1.07;;;;;;;16.81;63.78;99608.89;4082406;86;21073;-84
2021/05/24 09:00:49;;;;;;;1.47;0.90;;;;;;;17.07;60.37;99595.11;4087146;85;21072;-83
2021/05/24 09:06:52;;;;;;;2.37;1.00;;;;;;;16.92;59.17;99581.17;4141099;85;21607;-83
2021/05/24 09:13:29;;;;;;;2.85;1.10;;;;;;;17.06;59.32;99574.19;4073498;85;21116;-84
2021/05/24 09:19:40;;;;;;;1.70;1.00;;;;;;;17.37;57.24;99571.80;4118996;85;21115;-85
2021/05/24 09:26:33;;;;;;;5.75;1.52;;;;;;;17.85;58.99;99568.50;4141881;85;21069;-84
2021/05/24 09:32:42;;;;;;;5.12;1.10;;;;;;;17.83;54.57;99573.66;4128078;85;21059;-84
2021/05/24 09:46:00;;;;;;;1.10;0.98;;;;;;;18.21;55.95;99548.15;4105013;85;21594;-83
2021/05/24 09:52:08;;;;;;;1.62;0.80;;;;;;;18.11;55.50;99542.11;4113634;85;21106;-85
2021/05/24 10:12:19;;;;;;;4.25;0.85;;;;;;;18.04;55.39;99513.87;4213355;82;21458;-85
2021/05/24 10:18:32;;;;;;;2.55;0.78;;;;;;;18.22;55.56;99502.02;4182722;82;21159;-84
2021/05/24 10:24:34;;;;;;;1.15;0.65;;;;;;;18.66;55.83;99503.28;4203674;82;21085;-84
2021/05/24 10:38:02;;;;;;;2.20;0.98;;;;;;;19.13;55.21;99491.70;4198761;82;21102;-84
2021/05/24 10:51:19;;;;;;;3.35;1.10;;;;;;;19.67;46.53;99471.59;4054223;86;21194;-85
2021/05/24 10:57:31;;;;;;;3.12;0.80;;;;;;;19.98;51.68;99481.33;4153251;82;25219;-84
2021/05/24 11:10:48;;;;;;;3.67;0.95;;;;;;;20.54;48.36;99474.66;4216752;84;21707;-84
